createdAt,value
2019-05-07T00:01:59.425Z,66.62
2019-05-07T00:04:29.942Z,66.63
2019-05-07T00:07:02.416Z,67.10
2019-05-07T00:09:33.019Z,68.10
2019-05-07T00:12:05.157Z,70.49
2019-05-07T00:14:35.931Z,71.78
2019-05-07T00:17:06.509Z,72.99
2019-05-07T00:19:37.123Z,73.24
2019-05-07T00:22:12.556Z,73.62
2019-05-07T00:24:43.411Z,73.28
2019-05-07T00:27:14.148Z,73.69
2019-05-07T00:29:44.929Z,74.44
2019-05-07T00:32:15.569Z,74.23
2019-05-07T00:34:47.853Z,74.98
2019-05-07T00:37:23.178Z,75.18
2019-05-07T00:39:55.381Z,75.12
2019-05-07T00:42:32.254Z,74.56
2019-05-07T00:45:17.043Z,74.84
2019-05-07T00:47:39.684Z,74.54
2019-05-07T00:50:18.052Z,73.76
2019-05-07T00:52:48.792Z,74.19
2019-05-07T00:55:19.403Z,74.36
2019-05-07T00:57:50.143Z,73.60
2019-05-07T01:00:22.326Z,74.14
2019-05-07T01:02:53.219Z,73.41
2019-05-07T01:05:24.011Z,73.59
2019-05-07T01:07:54.817Z,73.88
2019-05-07T01:10:25.419Z,74.30
2019-05-07T01:12:58.894Z,74.83
2019-05-07T01:15:31.590Z,75.23
2019-05-07T01:18:02.846Z,75.89
2019-05-07T01:20:33.515Z,76.04
2019-05-07T01:23:05.580Z,76.07
2019-05-07T01:25:36.311Z,75.46
2019-05-07T01:28:06.922Z,74.89
2019-05-07T01:30:37.563Z,74.43
2019-05-07T01:33:12.147Z,73.67
2019-05-07T01:35:43.831Z,72.71
2019-05-07T01:38:16.055Z,72.59
2019-05-07T01:40:46.759Z,72.32
2019-05-07T01:43:17.393Z,71.81
2019-05-07T01:45:49.870Z,72.49
2019-05-07T01:48:23.043Z,71.92
2019-05-07T01:50:53.439Z,73.25
2019-05-07T01:53:24.075Z,73.42
2019-05-07T01:55:54.721Z,73.53
2019-05-07T01:58:25.290Z,71.94
2019-05-07T02:00:56.028Z,70.19
2019-05-07T02:03:42.029Z,69.82
2019-05-07T02:06:17.200Z,70.22
2019-05-07T02:09:02.385Z,70.87
2019-05-07T02:11:42.247Z,71.79
2019-05-07T02:14:13.652Z,71.54
2019-05-07T02:16:44.418Z,71.46
2019-05-07T02:19:15.037Z,70.86
2019-05-07T02:21:45.674Z,70.66
2019-05-07T02:24:16.235Z,70.69
2019-05-07T02:26:46.961Z,70.04
2019-05-07T02:29:19.697Z,70.55
2019-05-07T02:31:53.008Z,70.29
2019-05-07T02:34:23.524Z,69.78
2019-05-07T02:36:54.668Z,68.17
2019-05-07T02:39:33.064Z,67.58
2019-05-07T02:42:03.727Z,68.10
2019-05-07T02:44:36.398Z,67.26
2019-05-07T02:47:12.898Z,66.25
2019-05-07T02:49:48.367Z,67.25
2019-05-07T02:52:22.974Z,66.06
2019-05-07T02:55:03.764Z,64.43
2019-05-07T02:57:33.908Z,64.53
2019-05-07T03:00:07.841Z,64.24
2019-05-07T03:02:38.444Z,63.33
2019-05-07T03:05:09.097Z,62.73
2019-05-07T03:07:42.450Z,63.62
2019-05-07T03:10:13.902Z,63.57
2019-05-07T03:12:45.208Z,62.64
2019-05-07T03:15:15.826Z,62.06
2019-05-07T03:17:46.390Z,62.09
2019-05-07T03:20:36.928Z,62.22
2019-05-07T03:23:09.685Z,61.76
2019-05-07T03:25:54.048Z,62.14
2019-05-07T03:28:25.058Z,63.02
2019-05-07T03:31:17.178Z,63.37
2019-05-07T03:33:56.326Z,62.89
2019-05-07T03:36:47.519Z,63.07
2019-05-07T03:39:16.385Z,62.08
2019-05-07T03:41:47.125Z,61.92
2019-05-07T03:44:19.352Z,63.67
2019-05-07T03:47:01.094Z,64.14
2019-05-07T03:49:34.142Z,62.78
2019-05-07T03:52:04.575Z,63.00
2019-05-07T03:54:37.533Z,61.99
2019-05-07T03:57:11.300Z,61.57
2019-05-07T03:59:43.089Z,61.21
2019-05-07T04:02:14.238Z,60.96
2019-05-07T04:04:45.168Z,60.86
2019-05-07T04:07:15.879Z,60.94
2019-05-07T04:09:46.534Z,60.90
2019-05-07T04:12:17.154Z,61.26
2019-05-07T04:14:47.789Z,61.47
2019-05-07T04:17:23.234Z,61.37
2019-05-07T04:19:53.288Z,61.26
2019-05-07T04:22:28.352Z,61.86
2019-05-07T04:25:00.274Z,61.99
2019-05-07T04:27:33.244Z,62.17
2019-05-07T04:30:06.368Z,61.38
2019-05-07T04:32:47.712Z,60.42
2019-05-07T04:35:28.778Z,60.28
2019-05-07T04:38:02.358Z,60.03
2019-05-07T04:40:33.913Z,60.10
2019-05-07T04:43:04.780Z,59.93
2019-05-07T04:45:35.494Z,59.01
2019-05-07T04:48:06.116Z,59.08
2019-05-07T04:50:44.322Z,59.25
2019-05-07T04:53:14.014Z,58.26
2019-05-07T04:55:44.816Z,59.69
2019-05-07T04:58:15.522Z,58.29
2019-05-07T05:00:48.434Z,57.88
2019-05-07T05:03:23.405Z,57.47
2019-05-07T05:05:53.549Z,56.29
2019-05-07T05:08:24.322Z,56.23
2019-05-07T05:10:55.032Z,55.46
2019-05-07T05:13:25.701Z,55.53
2019-05-07T05:15:56.377Z,54.71
2019-05-07T05:18:27.047Z,54.61
2019-05-07T05:21:02.764Z,54.88
2019-05-07T05:23:42.267Z,54.97
2019-05-07T05:26:12.942Z,54.55
2019-05-07T05:28:43.557Z,55.18
2019-05-07T05:31:14.209Z,54.77
2019-05-07T05:33:44.752Z,55.54
2019-05-07T05:36:15.339Z,55.75
2019-05-07T05:38:45.897Z,55.56
2019-05-07T05:41:16.625Z,55.65
2019-05-07T05:43:48.942Z,57.08
2019-05-07T05:46:22.767Z,56.75
2019-05-07T05:48:53.440Z,55.75
2019-05-07T05:51:25.628Z,56.10
2019-05-07T05:54:14.018Z,57.46
2019-05-07T05:56:49.003Z,53.71
2019-05-07T05:59:25.394Z,51.80
2019-05-07T06:01:58.242Z,51.80
2019-05-07T06:04:46.984Z,47.33
2019-05-07T06:07:25.269Z,48.79
2019-05-07T06:09:57.507Z,48.79
2019-05-07T06:12:35.769Z,47.36
2019-05-07T06:15:14.694Z,43.21
2019-05-07T06:18:04.030Z,40.18
2019-05-07T06:20:35.975Z,42.11
2019-05-07T06:23:17.194Z,37.68
2019-05-07T06:25:48.529Z,38.92
2019-05-07T06:28:22.389Z,38.86
2019-05-07T06:30:53.000Z,36.03
2019-05-07T06:33:23.621Z,40.64
2019-05-07T06:35:54.315Z,43.17
2019-05-07T06:38:26.493Z,44.99
2019-05-07T06:41:07.596Z,40.29
2019-05-07T06:43:45.939Z,43.08
2019-05-07T06:46:16.652Z,42.55
2019-05-07T06:48:47.257Z,43.78
2019-05-07T06:51:17.857Z,42.77
2019-05-07T06:53:48.605Z,44.59
2019-05-07T06:56:19.229Z,44.52
2019-05-07T06:58:57.462Z,45.76
2019-05-07T07:01:35.602Z,46.42
2019-05-07T07:04:07.945Z,44.76
2019-05-07T07:06:49.547Z,45.33
2019-05-07T07:09:28.891Z,44.54
2019-05-07T07:12:17.439Z,43.52
2019-05-07T07:14:51.762Z,44.93
2019-05-07T07:17:22.310Z,43.65
2019-05-07T07:19:53.338Z,44.03
2019-05-07T07:22:24.071Z,43.62
2019-05-07T07:24:54.720Z,43.90
2019-05-07T07:27:25.290Z,44.99
2019-05-07T07:29:57.448Z,43.75
2019-05-07T07:32:31.826Z,43.84
2019-05-07T07:35:03.299Z,43.99
2019-05-07T07:37:42.964Z,45.32
2019-05-07T07:40:29.222Z,44.83
2019-05-07T07:42:59.932Z,45.78
2019-05-07T07:45:32.446Z,43.47
2019-05-07T07:48:03.237Z,43.34
2019-05-07T07:50:33.895Z,42.08
2019-05-07T07:53:04.517Z,41.37
2019-05-07T07:55:36.681Z,41.37
2019-05-07T07:58:09.073Z,41.72
2019-05-07T08:13:01.967Z,43.75
2019-05-07T08:15:33.199Z,43.19
2019-05-07T08:18:03.944Z,42.85
2019-05-07T08:20:34.938Z,43.49
2019-05-07T08:23:05.742Z,43.13
2019-05-07T08:25:48.204Z,43.14
2019-05-07T08:28:22.875Z,43.62
2019-05-07T08:31:00.013Z,43.13
2019-05-07T08:33:32.370Z,43.59
2019-05-07T08:36:12.006Z,41.77
2019-05-07T08:38:52.743Z,42.44
2019-05-07T08:41:25.212Z,42.48
2019-05-07T08:44:09.178Z,42.39
2019-05-07T08:46:44.195Z,42.95
2019-05-07T08:49:16.481Z,42.11
2019-05-07T08:51:48.627Z,42.11
2019-05-07T08:54:19.376Z,41.25
2019-05-07T08:56:50.067Z,40.91
2019-05-07T08:59:22.376Z,40.30
2019-05-07T09:01:53.174Z,40.64
2019-05-07T09:04:23.789Z,40.18
2019-05-07T09:06:54.455Z,40.92
2019-05-07T09:09:25.812Z,40.92
2019-05-07T09:12:03.030Z,40.43
2019-05-07T09:14:36.739Z,40.96
2019-05-07T09:17:07.424Z,40.26
2019-05-07T09:19:48.349Z,39.08
2019-05-07T09:22:12.709Z,39.81
2019-05-07T09:24:43.245Z,39.75
2019-05-07T09:27:15.643Z,39.47
2019-05-07T09:29:47.810Z,39.49
2019-05-07T09:32:22.612Z,39.64
2019-05-07T09:35:09.988Z,39.05
2019-05-07T09:37:42.073Z,39.27
2019-05-07T09:40:13.322Z,39.35
2019-05-07T09:42:44.031Z,38.95
2019-05-07T09:45:15.560Z,38.81
2019-05-07T09:47:46.352Z,38.43
2019-05-07T09:50:17.030Z,39.27
2019-05-07T09:52:53.692Z,39.41
2019-05-07T09:55:24.380Z,38.13
2019-05-07T09:57:55.122Z,38.89
2019-05-07T10:00:26.615Z,39.01
2019-05-07T10:02:57.324Z,38.37
2019-05-07T10:05:28.305Z,37.66
2019-05-07T10:07:59.388Z,37.53
2019-05-07T10:10:30.273Z,36.49
2019-05-07T10:13:05.562Z,37.89
2019-05-07T10:15:36.378Z,36.53
2019-05-07T10:18:08.582Z,37.22
2019-05-07T10:20:39.193Z,36.61
2019-05-07T10:23:11.703Z,36.01
2019-05-07T10:25:42.708Z,36.54
2019-05-07T10:28:13.555Z,37.17
2019-05-07T10:30:44.130Z,37.11
2019-05-07T10:33:14.934Z,37.81
2019-05-07T10:35:45.609Z,37.30
2019-05-07T10:38:16.505Z,36.55
2019-05-07T10:40:47.181Z,37.06
2019-05-07T10:43:17.943Z,37.19
2019-05-07T10:46:05.699Z,36.97
2019-05-07T10:48:38.055Z,37.76
2019-05-07T10:51:08.947Z,38.86
2019-05-07T10:53:39.699Z,38.31
2019-05-07T10:56:11.791Z,38.33
2019-05-07T10:58:42.626Z,38.48
2019-05-07T11:01:15.088Z,38.80
2019-05-07T11:03:45.925Z,38.23
2019-05-07T11:06:18.604Z,38.64
2019-05-07T11:08:49.204Z,39.05
2019-05-07T11:11:20.050Z,38.80
2019-05-07T11:13:55.329Z,38.83
2019-05-07T11:16:24.843Z,39.06
2019-05-07T11:18:55.539Z,38.43
2019-05-07T11:21:33.250Z,37.80
2019-05-07T11:24:04.491Z,38.70
2019-05-07T11:26:35.193Z,38.19
2019-05-07T11:29:05.857Z,37.01
2019-05-07T11:31:36.592Z,36.59
2019-05-07T11:34:07.382Z,37.06
2019-05-07T11:36:38.175Z,37.40
2019-05-07T11:39:08.775Z,36.77
2019-05-07T11:41:42.292Z,37.45
2019-05-07T11:44:14.575Z,38.08
2019-05-07T11:47:03.266Z,39.81
2019-05-07T11:49:49.228Z,40.56
2019-05-07T11:52:22.831Z,42.58
2019-05-07T11:54:53.155Z,42.29
2019-05-07T11:57:23.965Z,43.12
2019-05-07T11:59:54.499Z,43.10
2019-05-07T12:02:25.111Z,43.75
2019-05-07T12:04:55.743Z,43.31
2019-05-07T12:07:26.364Z,44.68
2019-05-07T12:09:57.176Z,44.93
2019-05-07T12:12:27.843Z,45.54
2019-05-07T12:14:58.401Z,45.57
2019-05-07T12:17:29.201Z,45.49
2019-05-07T12:20:02.210Z,46.09
2019-05-07T12:22:47.865Z,46.15
2019-05-07T12:25:19.792Z,46.29
2019-05-07T12:27:52.562Z,46.47
2019-05-07T12:30:42.809Z,46.24
2019-05-07T12:33:18.058Z,45.74
2019-05-07T12:35:48.665Z,46.02
2019-05-07T12:38:19.287Z,45.66
2019-05-07T12:40:52.245Z,45.80
2019-05-07T12:43:22.405Z,46.23
2019-05-07T12:45:53.159Z,45.50
2019-05-07T12:48:23.911Z,44.83
2019-05-07T12:50:54.774Z,43.73
2019-05-07T12:53:31.903Z,43.33
2019-05-07T12:56:04.053Z,42.68
2019-05-07T12:58:34.651Z,43.55
2019-05-07T13:01:07.319Z,42.12
2019-05-07T13:03:51.987Z,42.31
2019-05-07T13:06:22.524Z,42.47
2019-05-07T13:08:54.670Z,43.11
2019-05-07T13:11:25.501Z,43.56
2019-05-07T13:13:56.253Z,43.87
2019-05-07T13:16:26.851Z,43.96
2019-05-07T13:18:57.559Z,43.00
2019-05-07T13:21:28.243Z,43.34
2019-05-07T13:23:58.947Z,42.41
2019-05-07T13:26:29.577Z,43.54
2019-05-07T13:29:02.360Z,42.47
2019-05-07T13:31:34.929Z,42.16
2019-05-07T13:34:05.763Z,42.45
2019-05-07T13:36:38.956Z,43.75
2019-05-07T13:39:26.407Z,45.42
2019-05-07T13:42:07.761Z,46.07
2019-05-07T13:44:40.055Z,46.74
2019-05-07T13:47:27.327Z,46.03
2019-05-07T13:49:57.967Z,47.58
2019-05-07T13:52:28.976Z,48.66
2019-05-07T13:54:59.800Z,48.03
2019-05-07T13:57:32.770Z,48.03
2019-05-07T14:00:05.248Z,48.02
2019-05-07T14:02:35.885Z,47.69
2019-05-07T14:05:07.116Z,49.64
2019-05-07T14:07:41.563Z,49.64
2019-05-07T14:10:12.611Z,49.77
2019-05-07T14:12:43.482Z,51.21
2019-05-07T14:15:15.137Z,51.77
2019-05-07T14:17:45.906Z,53.24
2019-05-07T14:20:16.748Z,52.86
2019-05-07T14:22:47.495Z,52.37
2019-05-07T14:25:21.914Z,51.82
2019-05-07T14:27:55.036Z,53.05
2019-05-07T14:30:25.811Z,53.44
2019-05-07T14:32:58.056Z,54.11
2019-05-07T14:35:32.228Z,54.02
2019-05-07T14:38:07.105Z,54.08
2019-05-07T14:40:37.760Z,53.65
2019-05-07T14:43:12.574Z,54.52
2019-05-07T14:45:43.529Z,54.50
2019-05-07T14:48:14.154Z,54.87
2019-05-07T14:50:45.106Z,55.09
2019-05-07T14:53:15.888Z,56.51
2019-05-07T14:55:46.586Z,58.08
2019-05-07T14:58:17.370Z,57.69
2019-05-07T15:00:48.386Z,57.20
2019-05-07T15:03:19.455Z,56.88
2019-05-07T15:05:50.212Z,56.83
2019-05-07T15:08:21.981Z,56.80
2019-05-07T15:10:52.811Z,57.30
2019-05-07T15:13:23.395Z,57.71
2019-05-07T15:15:54.049Z,58.11
2019-05-07T15:18:26.561Z,57.45
2019-05-07T15:20:57.347Z,56.09
2019-05-07T15:23:33.282Z,54.99
2019-05-07T15:26:04.851Z,55.67
2019-05-07T15:28:37.100Z,55.75
2019-05-07T15:31:21.427Z,56.00
2019-05-07T15:33:52.623Z,56.56
2019-05-07T15:36:23.261Z,56.66
2019-05-07T15:38:53.980Z,57.12
2019-05-07T15:41:24.685Z,57.16
2019-05-07T15:43:55.385Z,58.12
2019-05-07T15:46:26.119Z,58.45
2019-05-07T15:48:56.686Z,58.76
2019-05-07T15:51:27.417Z,59.00
2019-05-07T15:53:59.314Z,59.26
2019-05-07T15:56:32.450Z,59.59
2019-05-07T15:59:03.137Z,60.17
2019-05-07T16:01:34.061Z,60.71
2019-05-07T16:04:19.256Z,61.91
2019-05-07T16:06:38.474Z,63.18
2019-05-07T16:09:09.476Z,64.24
2019-05-07T16:11:40.131Z,64.44
2019-05-07T16:14:14.474Z,65.60
2019-05-07T16:16:48.136Z,65.99
2019-05-07T16:19:20.304Z,66.82
2019-05-07T16:21:50.910Z,67.27
2019-05-07T16:24:22.563Z,67.48
2019-05-07T16:26:55.363Z,68.00
2019-05-07T16:29:25.972Z,68.33
2019-05-07T16:31:56.650Z,68.69
2019-05-07T16:34:28.090Z,69.08
2019-05-07T16:36:58.716Z,69.36
2019-05-07T16:39:29.310Z,69.65
2019-05-07T16:42:01.808Z,70.39
2019-05-07T16:44:33.149Z,70.63
2019-05-07T16:47:04.074Z,71.11
2019-05-07T16:49:34.979Z,71.70
2019-05-07T16:52:05.597Z,71.95
2019-05-07T16:54:37.163Z,71.96
2019-05-07T16:57:27.651Z,72.37
2019-05-07T16:59:58.406Z,72.54
2019-05-07T17:02:32.118Z,72.96
2019-05-07T17:05:05.841Z,73.44
2019-05-07T17:07:39.274Z,73.36
2019-05-07T17:10:11.683Z,73.33
2019-05-07T17:12:44.085Z,73.57
2019-05-07T17:15:15.627Z,73.86
2019-05-07T17:17:46.298Z,73.87
2019-05-07T17:20:17.208Z,73.85
2019-05-07T17:22:47.913Z,74.06
2019-05-07T17:25:37.080Z,74.22
2019-05-07T17:28:08.848Z,74.23
2019-05-07T17:30:41.931Z,74.52
2019-05-07T17:33:12.816Z,74.53
2019-05-07T17:35:45.944Z,74.81
2019-05-07T17:38:16.271Z,74.99
2019-05-07T17:40:47.090Z,74.97
2019-05-07T17:43:17.825Z,75.23
2019-05-07T17:45:49.568Z,75.29
2019-05-07T17:48:23.002Z,75.43
2019-05-07T17:50:54.831Z,75.25
2019-05-07T17:53:56.734Z,74.88
2019-05-07T17:56:27.259Z,74.34
2019-05-07T17:58:57.916Z,74.48
2019-05-07T18:01:30.072Z,74.56
2019-05-07T18:04:02.956Z,74.55
2019-05-07T18:06:33.331Z,74.20
2019-05-07T18:09:05.309Z,74.48
2019-05-07T18:11:36.275Z,74.70
2019-05-07T18:14:08.495Z,74.97
2019-05-07T18:16:59.127Z,74.80
2019-05-07T18:19:33.145Z,75.09
2019-05-07T18:22:04.112Z,75.13
2019-05-07T18:24:34.940Z,74.94
2019-05-07T18:27:07.326Z,75.26
2019-05-07T18:29:37.944Z,75.36
2019-05-07T18:32:08.579Z,75.54
2019-05-07T18:34:39.852Z,76.00
2019-05-07T18:37:12.576Z,76.49
2019-05-07T18:39:43.303Z,76.67
2019-05-07T18:42:13.940Z,77.24
2019-05-07T18:44:45.062Z,77.88
2019-05-07T18:47:15.676Z,77.97
2019-05-07T18:49:46.421Z,77.99
2019-05-07T18:52:18.523Z,78.28
2019-05-07T18:54:49.160Z,78.72
2019-05-07T18:57:22.066Z,78.97
2019-05-07T18:59:53.159Z,79.66
2019-05-07T19:02:24.061Z,79.62
2019-05-07T19:04:54.656Z,80.01
2019-05-07T19:07:25.583Z,80.39
2019-05-07T19:09:56.195Z,80.40
2019-05-07T19:12:28.444Z,80.17
2019-05-07T19:14:59.195Z,80.42
2019-05-07T19:17:29.821Z,80.51
2019-05-07T19:20:03.214Z,80.81
2019-05-07T19:22:33.818Z,80.97
2019-05-07T19:25:04.530Z,80.30
2019-05-07T19:27:35.375Z,79.61
2019-05-07T19:30:07.261Z,79.95
2019-05-07T19:32:37.864Z,80.24
2019-05-07T19:35:12.250Z,80.82
2019-05-07T19:37:42.625Z,81.28
2019-05-07T19:40:13.411Z,81.17
2019-05-07T19:42:44.250Z,81.20
2019-05-07T19:45:18.088Z,81.16
2019-05-07T19:47:47.725Z,81.22
2019-05-07T19:50:19.086Z,81.51
2019-05-07T19:52:49.669Z,82.14
2019-05-07T19:55:25.097Z,82.42
2019-05-07T19:57:57.306Z,82.47
2019-05-07T20:00:28.095Z,82.32
2019-05-07T20:03:00.266Z,82.79
2019-05-07T20:05:32.338Z,82.49
2019-05-07T20:08:04.733Z,82.54
2019-05-07T20:10:37.044Z,82.99
2019-05-07T20:13:07.651Z,82.53
2019-05-07T20:15:42.613Z,81.64
2019-05-07T20:18:13.438Z,81.00
2019-05-07T20:20:45.642Z,80.00
2019-05-07T20:23:16.427Z,80.02
2019-05-07T20:25:47.149Z,79.99
2019-05-07T20:28:17.818Z,80.01
2019-05-07T20:30:49.378Z,80.15
2019-05-07T20:33:21.966Z,80.44
2019-05-07T20:35:52.773Z,80.38
2019-05-07T20:38:23.491Z,79.90
2019-05-07T20:40:54.088Z,79.94
2019-05-07T20:43:24.723Z,80.03
2019-05-07T20:45:55.451Z,80.02
2019-05-07T20:48:29.237Z,79.58
2019-05-07T20:50:59.838Z,78.82
2019-05-07T20:53:48.487Z,78.26
2019-05-07T20:56:22.553Z,78.35
2019-05-07T20:58:53.327Z,78.37
2019-05-07T21:01:23.949Z,78.95
2019-05-07T21:03:54.531Z,79.63
2019-05-07T21:06:25.397Z,79.64
2019-05-07T21:08:56.078Z,79.62
2019-05-07T21:11:28.391Z,79.93
2019-05-07T21:13:58.982Z,79.79
2019-05-07T21:16:29.667Z,80.19
2019-05-07T21:19:01.995Z,80.43
2019-05-07T21:21:33.160Z,80.29
2019-05-07T21:24:04.091Z,80.35
2019-05-07T21:26:34.788Z,80.53
2019-05-07T21:29:06.078Z,80.74
2019-05-07T21:31:37.009Z,80.80
2019-05-07T21:34:07.855Z,80.71
2019-05-07T21:36:38.514Z,80.70
2019-05-07T21:39:09.256Z,80.94
2019-05-07T21:41:42.417Z,81.62
2019-05-07T21:44:16.944Z,82.73
2019-05-07T21:46:47.572Z,83.10
2019-05-07T21:49:18.205Z,83.33
2019-05-07T21:51:48.874Z,83.26
2019-05-07T21:54:24.534Z,83.27
2019-05-07T21:57:14.617Z,82.91
2019-05-07T21:59:45.388Z,82.84
2019-05-07T22:02:18.136Z,82.92
2019-05-07T22:04:49.005Z,82.81
2019-05-07T22:07:19.856Z,82.84
2019-05-07T22:09:52.340Z,83.09
2019-05-07T22:12:24.017Z,83.36
2019-05-07T22:14:55.079Z,83.05
2019-05-07T22:17:25.859Z,83.39
2019-05-07T22:19:56.485Z,83.47
2019-05-07T22:22:26.989Z,83.74
2019-05-07T22:24:57.646Z,84.29
2019-05-07T22:27:28.409Z,84.38
2019-05-07T22:29:58.982Z,84.54
2019-05-07T22:32:34.141Z,84.95
2019-05-07T22:35:17.962Z,85.13
2019-05-07T22:37:48.580Z,85.75
2019-05-07T22:40:19.193Z,86.18
2019-05-07T22:42:49.980Z,86.05
2019-05-07T22:45:22.687Z,86.55
2019-05-07T22:47:53.206Z,86.57
2019-05-07T22:50:23.821Z,86.10
2019-05-07T22:52:54.573Z,85.96
2019-05-07T22:55:26.412Z,85.86
2019-05-07T22:58:00.627Z,85.91
2019-05-07T23:00:32.859Z,85.70
2019-05-07T23:03:04.306Z,85.62
2019-05-07T23:05:35.129Z,85.14
2019-05-07T23:08:06.168Z,85.29
2019-05-07T23:10:36.817Z,85.04
2019-05-07T23:13:07.375Z,85.25
2019-05-07T23:15:37.942Z,84.89
2019-05-07T23:18:08.600Z,85.16
2019-05-07T23:20:39.144Z,85.39
2019-05-07T23:23:13.939Z,84.62
2019-05-07T23:25:43.087Z,84.78
2019-05-07T23:28:13.936Z,85.09
2019-05-07T23:30:44.508Z,84.26
2019-05-07T23:33:15.034Z,84.13
2019-05-07T23:35:46.042Z,84.18
2019-05-07T23:38:17.698Z,83.88
2019-05-07T23:40:49.964Z,84.19
2019-05-07T23:43:22.758Z,84.57
2019-05-07T23:45:53.554Z,85.96
2019-05-07T23:48:25.449Z,86.07
2019-05-07T23:50:56.033Z,86.41
2019-05-07T23:53:27.184Z,86.31
2019-05-07T23:55:57.756Z,86.69
2019-05-07T23:58:28.610Z,87.51
